Terminal Aerodrome Forecast
Issued by NWS

Home | Current Version | Previous Version | Text Only | Print | Product List | Glossary On
Versions: 1 2 3 4 5 6 7 8 9 10 11 12 13 14 15 16 17 18 19 20 21 22 23 24
000
FTUS43 KMQT 301731
TAFSAW
TAF
KSAW 301731Z 3018/3118 29007KT P6SM SCT025
     FM302100 22003KT P6SM BKN050
     FM310200 21004KT P6SM OVC025
     FM310600 21006KT 3SM -SN OVC015
     FM310900 22005KT P6SM OVC020
     FM311600 33012G20KT P6SM -SHSN OVC025
      AMD LTD TO CLD VIS AND WIND 3103/3111=

USA.gov is the U.S. government's official web portal to all federal, state and local government web resources and services.